Time;durP1;ratioP1;P1;durP2;ratioP2;P2;SDS_P1;SDS_P2;PMS_P1;PMS_P2;Temp;Humidity;BMP_temperature;BMP_pressure;BME280_temperature;BME280_humidity;BME280_pressure;Samples;Min_cycle;Max_cycle;Signal;HPM_P1;HPM_P2
2021/04/20 00:00:28;;;;;;;0.30;0.20;;;;;;;5.32;100.00;100450.72;5031282;28;20979;-58
2021/04/20 00:02:54;;;;;;;0.40;0.40;;;;;;;5.62;100.00;100437.38;5032492;28;20488;-57
2021/04/20 00:05:21;;;;;;;0.30;0.20;;;;;;;5.33;100.00;100444.56;5028843;28;20448;-57
2021/04/20 00:07:47;;;;;;;0.30;0.20;;;;;;;5.31;100.00;100436.66;5028178;28;20491;-58
2021/04/20 00:10:17;;;;;;;0.30;0.20;;;;;;;5.26;100.00;100440.22;5032715;28;20487;-58
2021/04/20 00:12:43;;;;;;;0.30;0.20;;;;;;;5.22;100.00;100435.84;5032459;28;20501;-58
2021/04/20 00:15:12;;;;;;;0.30;0.20;;;;;;;4.95;100.00;100435.06;5032432;28;20455;-57
2021/04/20 00:17:38;;;;;;;0.30;0.20;;;;;;;5.26;100.00;100433.19;5032434;28;20448;-57
2021/04/20 00:20:08;;;;;;;0.30;0.20;;;;;;;5.22;100.00;100433.22;5032164;28;20525;-57
2021/04/20 00:22:34;;;;;;;0.30;0.17;;;;;;;5.21;100.00;100434.09;5032404;28;20455;-57
2021/04/20 00:25:00;;;;;;;0.30;0.20;;;;;;;4.98;100.00;100432.41;5032503;28;20455;-57
2021/04/20 00:27:26;;;;;;;0.30;0.20;;;;;;;4.85;100.00;100433.34;5032107;28;21027;-58
2021/04/20 00:29:52;;;;;;;0.30;0.20;;;;;;;4.94;100.00;100419.28;5032253;28;20879;-58
2021/04/20 00:32:19;;;;;;;1.17;1.17;;;;;;;4.97;100.00;100428.03;5032067;28;20456;-57
2021/04/20 00:34:45;;;;;;;0.30;0.20;;;;;;;5.01;100.00;100429.75;5032363;28;20535;-57
2021/04/20 00:37:11;;;;;;;0.40;0.40;;;;;;;4.90;100.00;100422.78;5032157;28;20864;-58
2021/04/20 00:39:38;;;;;;;0.97;0.70;;;;;;;4.88;100.00;100416.66;5032324;28;20525;-57
2021/04/20 00:42:06;;;;;;;1.10;0.67;;;;;;;4.69;100.00;100415.84;5032195;28;20483;-58
2021/04/20 00:44:32;;;;;;;0.30;0.20;;;;;;;4.73;100.00;100412.31;5032179;28;20873;-58
2021/04/20 00:47:00;;;;;;;0.30;0.20;;;;;;;4.60;100.00;100400.06;5030683;28;20541;-57
2021/04/20 00:49:26;;;;;;;0.30;0.20;;;;;;;4.51;100.00;100418.50;5032410;28;20459;-58
2021/04/20 00:51:55;;;;;;;0.30;0.20;;;;;;;4.54;100.00;100423.78;5034435;28;20475;-57
2021/04/20 00:54:23;;;;;;;0.30;0.20;;;;;;;4.45;100.00;100414.13;5036016;28;20452;-58
2021/04/20 00:56:49;;;;;;;0.30;0.20;;;;;;;4.39;100.00;100415.03;5036052;28;20498;-57
2021/04/20 00:59:16;;;;;;;2.43;1.53;;;;;;;4.46;100.00;100416.75;5035833;28;20452;-57
2021/04/20 01:01:42;;;;;;;0.30;0.20;;;;;;;4.60;100.00;100413.22;5035672;28;20518;-57
2021/04/20 01:04:11;;;;;;;0.30;0.20;;;;;;;4.66;100.00;100421.09;5035892;28;20455;-57
2021/04/20 01:06:38;;;;;;;0.30;0.20;;;;;;;4.63;100.00;100416.72;5035674;28;21018;-58
2021/04/20 01:09:05;;;;;;;0.70;0.70;;;;;;;4.56;100.00;100419.38;5035663;28;20482;-58
2021/04/20 01:11:34;;;;;;;0.30;0.20;;;;;;;4.52;100.00;100409.72;5035632;28;20509;-57
2021/04/20 01:14:05;;;;;;;0.30;0.20;;;;;;;4.36;100.00;100412.38;5035666;28;20447;-57
2021/04/20 01:16:35;;;;;;;0.30;0.20;;;;;;;4.37;100.00;100418.53;5035824;28;20455;-57
2021/04/20 01:19:04;;;;;;;0.30;0.20;;;;;;;4.27;100.00;100420.31;5035466;28;20798;-57
2021/04/20 01:21:33;;;;;;;0.30;0.20;;;;;;;4.30;100.00;100425.56;5035410;28;21038;-58
2021/04/20 01:24:02;;;;;;;0.30;0.20;;;;;;;4.34;100.00;100423.78;5035753;28;21136;-58
2021/04/20 01:26:31;;;;;;;0.30;0.20;;;;;;;4.19;100.00;100422.06;5035388;28;20482;-58
2021/04/20 01:28:58;;;;;;;0.30;0.20;;;;;;;4.21;100.00;100417.66;5035228;28;20553;-58
2021/04/20 01:31:29;;;;;;;0.30;0.20;;;;;;;4.14;100.00;100422.06;5035867;28;21000;-56
2021/04/20 01:33:57;;;;;;;0.30;0.20;;;;;;;4.07;100.00;100420.31;5035724;28;20475;-56
2021/04/20 01:36:25;;;;;;;0.30;0.20;;;;;;;4.00;100.00;100418.56;5035391;28;20451;-56
2021/04/20 01:38:53;;;;;;;0.30;0.20;;;;;;;4.03;100.00;100418.56;5035756;28;20439;-56
2021/04/20 01:41:22;;;;;;;0.30;0.20;;;;;;;3.76;100.00;100422.03;5035290;28;20467;-57
2021/04/20 01:43:51;;;;;;;0.30;0.20;;;;;;;3.92;100.00;100420.31;5022515;28;20864;-56
2021/04/20 01:46:17;;;;;;;1.80;1.70;;;;;;;3.97;100.00;100409.78;5035646;28;20447;-56
2021/04/20 01:48:44;;;;;;;0.30;0.20;;;;;;;3.87;100.00;100416.81;5035394;28;20487;-57
2021/04/20 01:51:15;;;;;;;0.30;0.20;;;;;;;3.77;100.00;100415.03;5035474;28;20467;-56
2021/04/20 01:53:42;;;;;;;0.30;0.20;;;;;;;3.89;100.00;100414.16;5035163;28;20933;-57
2021/04/20 01:56:10;;;;;;;0.30;0.20;;;;;;;3.70;100.00;100410.63;5035282;28;20428;-57
2021/04/20 01:58:38;;;;;;;1.47;1.47;;;;;;;3.56;100.00;100407.97;5034967;28;20447;-57
2021/04/20 02:01:09;;;;;;;0.33;0.27;;;;;;;3.59;100.00;100413.28;5035189;28;20459;-57
2021/04/20 02:03:36;;;;;;;0.30;0.10;;;;;;;3.46;100.00;100416.75;5034621;28;20436;-56
2021/04/20 02:06:05;;;;;;;0.30;0.20;;;;;;;3.69;100.00;100406.25;5035136;28;20444;-56
2021/04/20 02:08:32;;;;;;;2.97;0.93;;;;;;;3.64;100.00;100411.50;5034775;28;21067;-56
2021/04/20 02:10:59;;;;;;;0.30;0.10;;;;;;;3.63;100.00;100409.75;5035070;28;20533;-56
2021/04/20 02:13:25;;;;;;;0.70;0.70;;;;;;;3.59;100.00;100420.28;5035135;28;20447;-57
2021/04/20 02:15:52;;;;;;;0.30;0.20;;;;;;;3.38;100.00;100411.47;5035067;28;20811;-57
2021/04/20 02:18:20;;;;;;;0.30;0.20;;;;;;;3.30;100.00;100417.59;5034983;28;20502;-57
2021/04/20 02:20:48;;;;;;;0.30;0.10;;;;;;;3.51;100.00;100412.38;5034566;28;20972;-57
2021/04/20 02:23:14;;;;;;;0.30;0.20;;;;;;;3.45;100.00;100410.63;5034842;28;20958;-56
2021/04/20 02:25:44;;;;;;;0.30;0.10;;;;;;;3.46;100.00;100404.50;5034649;28;20444;-56
2021/04/20 02:28:11;;;;;;;0.30;0.20;;;;;;;3.31;100.00;100406.22;5034561;28;20570;-56
2021/04/20 02:30:37;;;;;;;0.40;0.40;;;;;;;3.16;100.00;100407.03;5034325;28;20468;-56
2021/04/20 02:33:04;;;;;;;0.30;0.10;;;;;;;3.18;100.00;100413.16;5034751;28;20440;-57
2021/04/20 02:35:31;;;;;;;0.30;0.20;;;;;;;3.30;100.00;100417.59;5034578;28;20456;-56
2021/04/20 02:37:58;;;;;;;0.30;0.10;;;;;;;3.15;100.00;100411.41;5034395;28;20961;-57
2021/04/20 02:40:29;;;;;;;0.30;0.10;;;;;;;3.19;100.00;100409.66;5034606;28;20471;-57
2021/04/20 02:42:55;;;;;;;0.40;0.40;;;;;;;3.10;100.00;100412.25;5034716;28;20435;-56
2021/04/20 02:45:24;;;;;;;0.30;0.20;;;;;;;3.12;100.00;100411.38;5034106;28;20494;-56
2021/04/20 02:47:51;;;;;;;0.30;0.20;;;;;;;2.97;100.00;100416.56;5034158;28;20842;-56
2021/04/20 02:50:28;;;;;;;0.30;0.20;;;;;;;2.98;100.00;100415.69;5014310;28;20844;-56
2021/04/20 02:52:56;;;;;;;0.30;0.20;;;;;;;3.12;100.00;100414.00;5014423;28;20424;-57
2021/04/20 02:55:23;;;;;;;0.30;0.20;;;;;;;3.19;100.00;100413.16;5029566;28;20461;-56
2021/04/20 02:57:56;;;;;;;0.30;0.10;;;;;;;3.18;100.00;100418.41;5014281;28;20524;-57
2021/04/20 03:00:24;;;;;;;0.30;0.10;;;;;;;3.21;100.00;100416.69;5014437;28;20468;-57
2021/04/20 03:02:58;;;;;;;0.30;0.10;;;;;;;3.01;100.00;100410.47;5031429;28;20527;-56
2021/04/20 03:05:28;;;;;;;0.30;0.20;;;;;;;2.91;100.00;100422.69;5033814;28;21004;-56
2021/04/20 03:07:55;;;;;;;0.47;0.47;;;;;;;2.91;100.00;100416.56;5033860;28;20996;-56
2021/04/20 03:10:23;;;;;;;0.30;0.20;;;;;;;3.01;100.00;100407.84;5034194;28;20491;-56
2021/04/20 03:12:50;;;;;;;0.30;0.20;;;;;;;3.10;100.00;100409.63;5034231;28;20450;-56
2021/04/20 03:15:18;;;;;;;0.30;0.20;;;;;;;3.11;100.00;100414.00;5032823;28;20447;-56
2021/04/20 03:17:46;;;;;;;0.30;0.20;;;;;;;3.11;100.00;100408.75;5033503;28;20861;-56
2021/04/20 03:20:14;;;;;;;0.43;0.43;;;;;;;2.97;100.00;100403.44;5032592;28;20470;-56
2021/04/20 03:22:42;;;;;;;0.30;0.20;;;;;;;2.89;100.00;100411.31;5033724;28;20521;-57
2021/04/20 03:25:11;;;;;;;0.30;0.10;;;;;;;2.93;100.00;100415.69;5033649;28;20454;-56
2021/04/20 03:27:43;;;;;;;0.30;0.10;;;;;;;2.93;100.00;100414.81;5033183;28;20487;-56
2021/04/20 03:30:14;;;;;;;0.30;0.20;;;;;;;2.81;100.00;100413.00;5033300;28;20844;-57
2021/04/20 03:32:47;;;;;;;0.30;0.20;;;;;;;2.72;100.00;100405.09;5036441;28;20459;-57
2021/04/20 03:35:27;;;;;;;0.30;0.10;;;;;;;2.71;100.00;100405.06;5031743;28;20980;-57
2021/04/20 03:38:21;;;;;;;0.30;0.20;;;;;;;2.74;100.00;100411.25;5032781;28;20444;-57
2021/04/20 03:40:53;;;;;;;0.30;0.20;;;;;;;2.75;100.00;100413.00;5021338;28;20502;-56
2021/04/20 03:43:24;;;;;;;0.30;0.10;;;;;;;2.74;100.00;100410.34;5032967;28;20443;-56
2021/04/20 03:45:56;;;;;;;0.20;0.20;;;;;;;2.79;100.00;100408.63;5029341;28;20455;-57
2021/04/20 03:48:29;;;;;;;0.30;0.10;;;;;;;2.82;100.00;100417.38;5030847;28;20545;-57
2021/04/20 03:51:01;;;;;;;0.30;0.10;;;;;;;2.86;100.00;100413.91;5031567;28;20467;-57
2021/04/20 03:53:31;;;;;;;0.30;0.20;;;;;;;2.66;100.00;100405.94;5032783;28;20467;-57
2021/04/20 03:55:57;;;;;;;0.30;0.20;;;;;;;2.58;100.00;100402.38;5032588;28;20944;-58
2021/04/20 03:58:25;;;;;;;0.30;0.10;;;;;;;2.83;100.00;100399.91;5032632;28;20448;-57
2021/04/20 04:00:54;;;;;;;0.30;0.20;;;;;;;2.66;100.00;100395.44;5032372;28;20892;-57
2021/04/20 04:03:25;;;;;;;0.30;0.10;;;;;;;2.55;100.00;100405.00;5032438;28;20506;-57
2021/04/20 04:05:52;;;;;;;0.30;0.10;;;;;;;2.59;100.00;100411.13;5032614;28;20455;-57
2021/04/20 04:08:20;;;;;;;0.30;0.20;;;;;;;2.64;100.00;100405.06;5032512;28;20496;-57
2021/04/20 04:10:51;;;;;;;0.30;0.20;;;;;;;2.52;100.00;100411.97;5032398;28;20471;-57
2021/04/20 04:13:21;;;;;;;0.30;0.20;;;;;;;2.51;100.00;100405.88;5032461;28;20448;-57
2021/04/20 04:15:48;;;;;;;0.30;0.10;;;;;;;2.56;100.00;100422.50;5032749;28;20451;-57
2021/04/20 04:18:16;;;;;;;0.30;0.20;;;;;;;2.54;100.00;100412.88;5032478;28;20447;-57
2021/04/20 04:20:42;;;;;;;0.30;0.10;;;;;;;2.40;100.00;100410.16;5032355;28;20479;-56
2021/04/20 04:23:16;;;;;;;0.30;0.20;;;;;;;2.58;100.00;100423.38;5032384;28;20443;-57
2021/04/20 04:25:54;;;;;;;0.30;0.10;;;;;;;2.56;100.00;100401.50;5032380;28;20459;-57
2021/04/20 04:28:22;;;;;;;0.30;0.20;;;;;;;2.63;100.00;100410.31;5036658;28;20526;-59
2021/04/20 04:30:51;;;;;;;0.23;0.10;;;;;;;3.15;100.00;100411.41;5035047;28;20509;-56
2021/04/20 04:33:19;;;;;;;0.30;0.20;;;;;;;2.96;100.00;100412.19;5036218;28;20447;-57
2021/04/20 04:35:48;;;;;;;0.30;0.17;;;;;;;2.96;100.00;100415.69;5036686;28;20455;-57
2021/04/20 04:38:15;;;;;;;0.20;0.10;;;;;;;2.76;100.00;100413.88;5036417;28;20448;-57
2021/04/20 04:40:42;;;;;;;0.30;0.20;;;;;;;2.79;100.00;100417.38;5036127;28;20482;-57
2021/04/20 04:43:09;;;;;;;0.90;0.70;;;;;;;2.62;100.00;100419.94;5036498;28;20451;-57
2021/04/20 04:45:36;;;;;;;0.20;0.10;;;;;;;2.91;100.00;100419.19;5036522;28;20457;-57
2021/04/20 04:48:03;;;;;;;0.30;0.20;;;;;;;2.86;100.00;100426.16;5036060;28;20495;-57
2021/04/20 04:50:30;;;;;;;0.30;0.20;;;;;;;2.67;100.00;100423.44;5036022;28;20991;-57
2021/04/20 04:52:58;;;;;;;0.20;0.20;;;;;;;2.77;100.00;100424.38;5035935;28;20455;-57
2021/04/20 04:55:24;;;;;;;0.30;0.10;;;;;;;2.77;100.00;100421.75;5036224;28;20497;-57
2021/04/20 04:57:52;;;;;;;0.20;0.10;;;;;;;2.71;100.00;100419.06;5036058;28;20505;-57
2021/04/20 05:00:19;;;;;;;0.30;0.10;;;;;;;2.85;100.00;100427.00;5035786;28;20826;-57
2021/04/20 05:02:46;;;;;;;0.30;0.20;;;;;;;2.77;100.00;100429.63;5035942;28;20455;-57
2021/04/20 05:05:15;;;;;;;0.20;0.20;;;;;;;3.00;100.00;100427.09;5035893;28;20497;-57
2021/04/20 05:07:42;;;;;;;0.30;0.20;;;;;;;3.05;100.00;100429.75;5035507;28;20487;-57
2021/04/20 05:10:12;;;;;;;0.30;0.10;;;;;;;3.37;100.00;100435.09;5035860;28;20447;-57
2021/04/20 05:12:39;;;;;;;0.30;0.20;;;;;;;3.59;100.00;100436.03;5035631;28;20529;-57
2021/04/20 05:15:15;;;;;;;0.20;0.10;;;;;;;3.96;100.00;100432.56;5035758;28;20455;-57
2021/04/20 05:17:43;;;;;;;0.43;0.43;;;;;;;4.37;100.00;100427.28;5035379;28;20539;-57
2021/04/20 05:20:16;;;;;;;0.60;0.60;;;;;;;4.44;100.00;100423.78;5035556;28;20883;-57
2021/04/20 05:22:47;;;;;;;0.30;0.10;;;;;;;4.53;100.00;100427.28;5035546;28;20948;-57
2021/04/20 05:25:15;;;;;;;0.30;0.20;;;;;;;5.08;100.00;100429.75;5035568;28;20455;-57
2021/04/20 05:27:49;;;;;;;0.30;0.20;;;;;;;5.16;100.00;100427.94;5035569;28;21035;-57
2021/04/20 05:30:16;;;;;;;0.30;0.20;;;;;;;5.39;100.00;100428.72;5035104;28;20471;-57
2021/04/20 05:32:49;;;;;;;0.30;0.20;;;;;;;5.50;100.00;100434.81;5035163;28;20555;-57
2021/04/20 05:35:16;;;;;;;0.30;0.20;;;;;;;5.71;99.89;100433.78;5035569;28;20495;-57
2021/04/20 05:37:44;;;;;;;0.30;0.20;;;;;;;5.90;99.98;100429.31;5034343;28;20454;-57
2021/04/20 05:40:11;;;;;;;0.30;0.20;;;;;;;6.15;98.96;100422.94;5032184;28;20451;-57
2021/04/20 05:42:38;;;;;;;0.30;0.20;;;;;;;6.26;98.05;100424.63;5035088;28;21011;-57
2021/04/20 05:45:10;;;;;;;0.30;0.20;;;;;;;6.27;97.77;100424.59;5034962;28;20451;-57
2021/04/20 05:47:44;;;;;;;0.30;0.20;;;;;;;6.53;96.88;100427.00;5035117;28;20521;-57
2021/04/20 05:50:15;;;;;;;0.40;0.30;;;;;;;6.38;98.33;100429.78;5034973;28;21002;-57
2021/04/20 05:52:41;;;;;;;0.30;0.20;;;;;;;6.51;97.82;100431.41;5033800;28;20952;-57
2021/04/20 05:55:07;;;;;;;0.30;0.20;;;;;;;6.42;97.01;100428.84;5034869;28;20525;-57
2021/04/20 05:57:35;;;;;;;0.30;0.20;;;;;;;6.40;98.35;100430.66;5034782;28;20451;-57
2021/04/20 06:00:05;;;;;;;0.30;0.20;;;;;;;6.65;98.49;100431.28;5034798;28;20517;-57
2021/04/20 06:02:33;;;;;;;0.30;0.20;;;;;;;6.70;97.93;100432.97;5034620;28;20448;-57
2021/04/20 06:05:19;;;;;;;0.30;0.20;;;;;;;6.80;98.28;100432.00;5033855;28;20514;-57
2021/04/20 06:07:48;;;;;;;0.30;0.20;;;;;;;6.62;99.99;100433.97;5046353;28;20495;-57
2021/04/20 06:10:16;;;;;;;0.30;0.10;;;;;;;6.77;100.00;100432.03;5034503;28;20910;-57
2021/04/20 06:12:43;;;;;;;0.40;0.40;;;;;;;6.78;100.00;100438.19;5034609;28;20463;-57
2021/04/20 06:15:10;;;;;;;0.30;0.20;;;;;;;6.87;100.00;100434.59;5034859;28;20452;-57
2021/04/20 06:17:43;;;;;;;0.30;0.20;;;;;;;6.90;100.00;100437.19;5034727;28;20519;-57
2021/04/20 06:20:11;;;;;;;0.30;0.20;;;;;;;6.90;100.00;100437.19;5036698;28;20525;-57
2021/04/20 06:22:41;;;;;;;0.30;0.20;;;;;;;7.22;100.00;100439.44;5034362;28;20567;-57
2021/04/20 06:25:11;;;;;;;0.30;0.20;;;;;;;7.03;100.00;100439.66;5034789;28;20521;-57
2021/04/20 06:27:39;;;;;;;0.30;0.20;;;;;;;6.97;100.00;100439.72;5021734;28;20495;-57
2021/04/20 06:30:07;;;;;;;0.30;0.20;;;;;;;7.20;100.00;100433.28;5033125;28;20821;-57
2021/04/20 06:32:38;;;;;;;0.30;0.20;;;;;;;7.20;100.00;100436.81;5033212;28;20459;-57
2021/04/20 06:35:07;;;;;;;0.30;0.20;;;;;;;7.26;100.00;100433.19;5029352;28;20525;-57
2021/04/20 06:37:38;;;;;;;0.30;0.20;;;;;;;7.76;100.00;100436.94;5034766;28;20447;-58
2021/04/20 06:40:33;;;;;;;0.60;0.60;;;;;;;7.65;100.00;100434.44;5033759;28;20451;-57
2021/04/20 06:43:02;;;;;;;0.30;0.20;;;;;;;8.08;100.00;100434.66;5023774;28;20451;-57
2021/04/20 06:45:38;;;;;;;0.30;0.20;;;;;;;7.76;100.00;100434.28;5021293;28;20455;-58
2021/04/20 06:48:22;;;;;;;0.30;0.20;;;;;;;7.62;100.00;100439.78;5034100;28;20490;-57
2021/04/20 06:50:53;;;;;;;0.30;0.20;;;;;;;7.69;100.00;100442.31;5033696;28;20471;-58
2021/04/20 06:53:25;;;;;;;0.30;0.20;;;;;;;7.77;100.00;100442.19;5034168;28;20460;-57
2021/04/20 06:56:18;;;;;;;0.60;0.57;;;;;;;7.74;100.00;100439.59;5033871;28;20910;-57
2021/04/20 06:58:50;;;;;;;0.30;0.20;;;;;;;7.77;100.00;100439.56;5023081;28;20510;-57
2021/04/20 07:01:22;;;;;;;0.30;0.20;;;;;;;7.76;100.00;100436.94;5033654;28;20483;-57
2021/04/20 07:04:06;;;;;;;0.30;0.20;;;;;;;7.89;100.00;100434.09;5033813;28;20443;-57
2021/04/20 07:06:36;;;;;;;0.30;0.20;;;;;;;8.12;100.00;100430.22;5033873;28;20447;-57
2021/04/20 07:09:14;;;;;;;0.30;0.20;;;;;;;7.99;100.00;100440.13;5033882;28;20539;-58
2021/04/20 07:11:45;;;;;;;0.30;0.20;;;;;;;8.11;100.00;100439.06;5021999;28;20968;-58
2021/04/20 07:14:24;;;;;;;0.30;0.20;;;;;;;8.28;100.00;100431.69;5032565;28;20502;-58
2021/04/20 07:17:19;;;;;;;0.30;0.20;;;;;;;8.20;100.00;100425.63;5033563;28;20455;-58
2021/04/20 07:19:55;;;;;;;0.30;0.20;;;;;;;8.97;99.43;100423.38;5004931;28;20448;-58
2021/04/20 07:22:43;;;;;;;0.30;0.20;;;;;;;8.94;100.00;100428.75;5033320;28;20451;-58
2021/04/20 07:25:30;;;;;;;0.30;0.20;;;;;;;8.74;99.98;100428.25;5033419;28;20459;-57
2021/04/20 07:28:29;;;;;;;0.30;0.20;;;;;;;8.92;100.00;100424.38;5032191;28;20499;-58
2021/04/20 07:31:43;;;;;;;0.30;0.20;;;;;;;9.14;99.51;100426.56;5021022;28;20545;-59
2021/04/20 07:34:20;;;;;;;0.30;0.20;;;;;;;10.01;96.89;100429.06;5008744;28;20443;-58
2021/04/20 07:37:24;;;;;;;0.30;0.20;;;;;;;9.36;97.35;100423.47;5033106;28;20432;-58
2021/04/20 07:39:59;;;;;;;0.30;0.20;;;;;;;9.99;95.95;100417.59;5033161;28;20459;-57
2021/04/20 07:42:56;;;;;;;0.77;0.77;;;;;;;10.13;96.39;100415.47;5031782;28;20470;-55
2021/04/20 07:45:35;;;;;;;0.93;0.93;;;;;;;10.15;95.46;100416.31;5027926;28;20465;-55
2021/04/20 07:48:26;;;;;;;0.30;0.20;;;;;;;9.78;96.77;100422.50;5032643;28;20549;-56
2021/04/20 07:51:00;;;;;;;0.30;0.20;;;;;;;10.44;96.14;100420.06;5033170;28;20546;-56
2021/04/20 07:54:00;;;;;;;0.30;0.30;;;;;;;10.10;96.22;100415.53;5032797;28;20447;-56
2021/04/20 07:56:37;;;;;;;0.30;0.20;;;;;;;10.20;95.98;100414.41;5031852;28;20452;-56
2021/04/20 07:59:10;;;;;;;0.30;0.20;;;;;;;10.54;95.52;100410.91;5033029;28;20440;-56
2021/04/20 08:02:00;;;;;;;0.30;0.20;;;;;;;10.47;96.01;100407.56;5032157;28;20490;-57
2021/04/20 08:04:35;;;;;;;0.30;0.20;;;;;;;10.63;96.05;100408.88;5032448;28;21013;-57
2021/04/20 08:07:10;;;;;;;0.30;0.20;;;;;;;10.66;94.70;100407.94;5031809;28;20533;-57
2021/04/20 08:09:42;;;;;;;0.30;0.20;;;;;;;11.12;94.64;100404.88;5032591;28;20821;-57
2021/04/20 08:12:18;;;;;;;0.30;0.20;;;;;;;11.25;93.99;100402.72;5031504;28;20468;-57
2021/04/20 08:14:52;;;;;;;0.30;0.20;;;;;;;11.24;92.87;100408.97;5020919;28;20501;-57
2021/04/20 08:17:32;;;;;;;0.30;0.20;;;;;;;11.71;90.93;100403.97;5032538;28;20458;-57
2021/04/20 08:20:09;;;;;;;5.27;1.23;;;;;;;11.32;90.77;100398.94;5032471;28;20448;-56
2021/04/20 08:22:36;;;;;;;0.50;0.50;;;;;;;11.39;91.65;100397.88;5032553;28;20455;-57
2021/04/20 08:25:05;;;;;;;0.30;0.20;;;;;;;11.28;92.46;100403.50;5032745;28;20456;-57
2021/04/20 08:27:40;;;;;;;0.50;0.50;;;;;;;11.51;91.35;100385.94;5019174;28;20483;-57
2021/04/20 08:30:14;;;;;;;0.30;0.20;;;;;;;12.10;90.50;100384.09;5032423;28;20447;-57
2021/04/20 08:32:45;;;;;;;0.30;0.20;;;;;;;12.50;89.10;100385.38;5031059;28;20455;-57
2021/04/20 08:35:27;;;;;;;4.73;1.07;;;;;;;11.89;89.18;100384.78;5032382;28;20450;-58
2021/04/20 08:38:09;;;;;;;0.40;0.33;;;;;;;12.42;88.93;100382.97;5032360;28;20497;-59
2021/04/20 08:40:57;;;;;;;0.30;0.20;;;;;;;12.28;87.13;100382.59;5019883;28;20929;-59
2021/04/20 08:43:57;;;;;;;1.37;1.37;;;;;;;12.37;87.75;100376.06;5032545;28;20446;-59
2021/04/20 08:46:29;;;;;;;0.30;0.20;;;;;;;12.66;86.11;100378.59;5032425;28;20940;-59
2021/04/20 08:49:18;;;;;;;1.13;1.13;;;;;;;12.91;86.37;100375.91;5032235;28;20487;-59
2021/04/20 08:51:54;;;;;;;0.50;0.50;;;;;;;12.89;85.33;100383.09;5031941;28;20972;-59
2021/04/20 08:54:33;;;;;;;0.30;0.20;;;;;;;12.82;85.67;100380.69;5032047;28;20454;-59
2021/04/20 08:57:22;;;;;;;0.30;0.20;;;;;;;13.00;85.49;100388.88;5020767;28;20965;-59
2021/04/20 09:00:11;;;;;;;0.30;0.20;;;;;;;12.91;85.13;100381.25;5032072;28;20447;-59
2021/04/20 09:02:59;;;;;;;0.30;0.20;;;;;;;13.27;85.20;100372.81;5032035;28;20459;-59
2021/04/20 09:05:31;;;;;;;3.23;0.80;;;;;;;13.11;84.64;100375.16;5023162;28;20444;-59
2021/04/20 09:08:18;;;;;;;0.30;0.20;;;;;;;13.33;83.97;100373.44;5032052;28;20578;-59
2021/04/20 09:10:55;;;;;;;0.30;0.20;;;;;;;13.39;84.35;100375.00;5031841;28;20811;-59
2021/04/20 09:13:25;;;;;;;0.63;0.60;;;;;;;13.63;84.16;100360.69;5034630;28;20494;-59
2021/04/20 09:16:02;;;;;;;0.30;0.20;;;;;;;13.89;81.57;100369.47;5035918;28;21003;-59
2021/04/20 09:18:45;;;;;;;0.30;0.20;;;;;;;13.87;81.87;100368.66;5038329;28;20509;-58
2021/04/20 09:21:33;;;;;;;0.30;0.20;;;;;;;14.37;81.54;100366.50;5035675;28;20697;-59
2021/04/20 09:24:20;;;;;;;0.40;0.30;;;;;;;13.94;78.50;100370.13;5034483;28;20482;-59
2021/04/20 09:27:30;;;;;;;0.57;0.57;;;;;;;14.21;77.63;100373.47;5035338;28;20513;-58
2021/04/20 09:29:59;;;;;;;0.30;0.20;;;;;;;13.99;79.99;100365.47;5035062;28;21023;-58
2021/04/20 09:32:34;;;;;;;0.40;0.30;;;;;;;14.32;81.12;100363.19;5035146;28;20944;-59
2021/04/20 09:35:03;;;;;;;2.23;1.13;;;;;;;14.59;77.47;100365.63;5035071;28;20447;-59
2021/04/20 09:37:33;;;;;;;26.73;1.43;;;;;;;14.43;78.45;100365.41;5035330;28;20458;-59
2021/04/20 09:40:01;;;;;;;0.77;0.77;;;;;;;14.28;79.62;100366.94;5035286;28;20814;-59
2021/04/20 09:42:28;;;;;;;2.40;2.20;;;;;;;14.26;78.71;100360.78;5035248;28;20858;-59
2021/04/20 09:45:08;;;;;;;0.40;0.30;;;;;;;14.61;78.53;100358.41;5034371;28;20455;-59
2021/04/20 09:47:37;;;;;;;1.43;1.33;;;;;;;14.41;76.37;100359.25;5035522;28;20996;-59
2021/04/20 09:50:24;;;;;;;0.30;0.20;;;;;;;14.52;78.46;100352.50;5035122;28;20502;-59
2021/04/20 09:53:16;;;;;;;0.70;0.70;;;;;;;15.05;77.53;100359.94;5034992;28;20960;-59
2021/04/20 09:56:14;;;;;;;2.20;2.00;;;;;;;15.06;76.25;100359.00;5035288;28;20463;-57
2021/04/20 09:58:43;;;;;;;0.40;0.30;;;;;;;15.00;74.16;100355.75;4998808;28;20452;-59
2021/04/20 10:01:32;;;;;;;0.40;0.40;;;;;;;14.79;73.63;100361.13;5034674;28;20477;-65
2021/04/20 10:04:09;;;;;;;0.30;0.20;;;;;;;14.72;72.04;100359.66;5035329;28;20444;-59
2021/04/20 10:06:55;;;;;;;0.40;0.20;;;;;;;14.78;72.97;100359.38;5022394;28;20509;-59
2021/04/20 10:09:33;;;;;;;0.40;0.30;;;;;;;15.02;69.61;100362.75;5034836;28;20810;-59
2021/04/20 10:12:20;;;;;;;0.50;0.50;;;;;;;15.20;70.83;100357.50;5033549;28;20463;-59
2021/04/20 10:15:07;;;;;;;0.50;0.43;;;;;;;14.81;70.67;100359.28;5022380;28;20448;-58
2021/04/20 10:17:41;;;;;;;0.67;0.63;;;;;;;14.83;70.79;100356.53;5028702;28;21028;-59
2021/04/20 10:20:15;;;;;;;0.30;0.20;;;;;;;15.21;70.45;100352.06;5033448;28;20448;-57
2021/04/20 10:23:04;;;;;;;0.40;0.20;;;;;;;15.00;71.39;100353.94;5033554;28;20937;-57
2021/04/20 10:25:39;;;;;;;1.17;1.17;;;;;;;14.90;69.61;100354.41;5034022;28;20447;-56
2021/04/20 10:28:38;;;;;;;0.90;0.80;;;;;;;14.94;72.00;100345.31;5034578;28;20479;-56
2021/04/20 10:31:18;;;;;;;0.30;0.20;;;;;;;15.07;71.75;100335.78;4989307;28;20495;-57
2021/04/20 10:33:48;;;;;;;0.37;0.23;;;;;;;14.98;71.87;100331.72;5034434;28;20444;-56
2021/04/20 10:36:16;;;;;;;0.30;0.20;;;;;;;14.93;71.22;100328.38;5033491;28;20861;-56
2021/04/20 10:38:43;;;;;;;1.63;1.53;;;;;;;15.31;71.14;100321.25;5034182;28;20452;-56
2021/04/20 10:41:28;;;;;;;0.60;0.60;;;;;;;15.56;68.48;100331.66;5034561;28;20472;-56
2021/04/20 10:43:56;;;;;;;0.60;0.60;;;;;;;15.25;68.82;100331.38;5034562;28;20517;-56
2021/04/20 10:46:28;;;;;;;0.40;0.20;;;;;;;15.46;69.30;100322.31;5032810;28;20514;-56
2021/04/20 10:48:57;;;;;;;0.40;0.20;;;;;;;15.41;68.10;100316.31;5034028;28;20545;-56
2021/04/20 10:51:29;;;;;;;0.37;0.20;;;;;;;16.00;67.94;100312.53;5032519;28;20988;-56
2021/04/20 10:53:57;;;;;;;0.40;0.20;;;;;;;15.99;68.29;100313.47;5033902;28;20948;-56
2021/04/20 10:56:24;;;;;;;1.60;1.50;;;;;;;16.11;69.04;100306.63;5034045;28;20506;-56
2021/04/20 10:58:55;;;;;;;5.93;2.10;;;;;;;16.50;67.62;100309.94;5032914;28;20458;-56
2021/04/20 11:01:23;;;;;;;0.40;0.30;;;;;;;16.52;66.64;100307.16;5032739;28;20475;-56
2021/04/20 11:03:53;;;;;;;0.40;0.30;;;;;;;16.72;65.28;100300.75;5034104;28;20452;-56
2021/04/20 11:06:56;;;;;;;25.03;3.20;;;;;;;17.13;65.50;100298.50;5033858;28;20459;-56
2021/04/20 11:09:33;;;;;;;0.40;0.20;;;;;;;16.51;63.36;100300.06;5033725;28;20842;-56
2021/04/20 11:12:15;;;;;;;6.60;1.53;;;;;;;16.77;65.33;100290.66;5033658;28;20526;-56
2021/04/20 11:14:44;;;;;;;0.40;0.20;;;;;;;16.53;67.05;100303.53;5019373;28;20463;-56
2021/04/20 11:17:18;;;;;;;0.40;0.20;;;;;;;16.69;62.48;100296.41;5033399;28;20444;-57
2021/04/20 11:19:51;;;;;;;0.40;0.20;;;;;;;16.86;62.19;100287.47;5033698;28;20450;-56
2021/04/20 11:22:19;;;;;;;0.40;0.20;;;;;;;17.15;62.09;100286.72;5032236;28;20794;-57
2021/04/20 11:24:53;;;;;;;0.40;0.23;;;;;;;16.95;60.85;100286.09;5033098;28;20455;-56
2021/04/20 11:27:24;;;;;;;0.40;0.20;;;;;;;17.52;59.94;100276.56;5033329;28;21141;-57
2021/04/20 11:30:14;;;;;;;0.40;0.20;;;;;;;16.88;59.70;100278.38;5033392;28;20498;-56
2021/04/20 11:32:50;;;;;;;0.40;0.30;;;;;;;17.27;59.13;100269.06;5031470;28;20872;-57
2021/04/20 11:35:20;;;;;;;0.40;0.20;;;;;;;16.83;60.07;100274.19;5032941;28;20443;-57
2021/04/20 11:37:48;;;;;;;1.37;1.20;;;;;;;16.61;61.02;100273.63;5032727;28;20965;-57
2021/04/20 11:40:25;;;;;;;0.70;0.70;;;;;;;16.82;60.69;100275.16;5033042;28;20471;-56
2021/04/20 11:42:53;;;;;;;0.57;0.57;;;;;;;17.23;60.77;100270.16;5033180;28;20855;-56
2021/04/20 11:45:23;;;;;;;0.40;0.20;;;;;;;16.97;59.53;100268.06;5032753;28;20440;-57
2021/04/20 11:47:49;;;;;;;0.40;0.20;;;;;;;16.78;61.34;100271.78;5032955;28;20488;-58
2021/04/20 11:50:18;;;;;;;0.60;0.60;;;;;;;16.46;60.59;100269.94;5032712;28;20475;-57
2021/04/20 11:52:46;;;;;;;0.40;0.20;;;;;;;16.73;61.25;100268.47;5032785;28;20517;-57